Preview of NWS' New Version of Forecast
This preview is not operational and should not be used for support decisions.

Terminal Aerodrome Forecast (TAF)

Issued by National Weather Service (NWS)

                            
029 
FTUS42 KKEY 280918 AAB
TAFEYW
TAF AMD
KEYW 280918Z 2809/2906 17013G21KT P6SM SCT015 BKN020 BKN050
      TEMPO 2809/2811 18023G28KT 4SM SHRA BR BKN015 OVC020
     FM281400 19016G25KT P6SM VCTS SCT020CB BKN040 BKN100=